Time;durP1;ratioP1;P1;durP2;ratioP2;P2;SDS_P1;SDS_P2;PMS_P1;PMS_P2;Temp;Humidity;BMP_temperature;BMP_pressure;BME280_temperature;BME280_humidity;BME280_pressure;Samples;Min_cycle;Max_cycle;Signal;HPM_P1;HPM_P2
2023/03/12 00:02:00;;;;;;;15.63;4.25;;;;;;;15.21;61.26;95384.38;4997948;28;20046;-26
2023/03/12 00:04:26;;;;;;;16.63;4.68;;;;;;;15.05;61.58;95382.22;4998375;28;20030;-26
2023/03/12 00:06:51;;;;;;;18.48;5.40;;;;;;;14.98;61.92;95388.09;5000968;28;20397;-26
2023/03/12 00:09:17;;;;;;;19.38;4.50;;;;;;;15.09;61.65;95390.94;5003154;28;20022;-26
2023/03/12 00:11:42;;;;;;;16.25;4.88;;;;;;;15.12;61.59;95386.50;5005445;28;20495;-26
2023/03/12 00:14:07;;;;;;;18.80;4.82;;;;;;;14.81;62.23;95387.94;5001051;28;20045;-26
2023/03/12 00:16:33;;;;;;;22.23;4.90;;;;;;;14.91;62.07;95396.72;5002036;28;20033;-26
2023/03/12 00:18:58;;;;;;;12.77;4.32;;;;;;;14.67;62.79;95397.69;4998904;28;20068;-27
2023/03/12 00:21:24;;;;;;;10.88;3.97;;;;;;;14.93;62.30;95403.19;4998043;28;20022;-26
2023/03/12 00:23:51;;;;;;;14.48;4.80;;;;;;;14.77;62.49;95403.00;4995889;28;20065;-26
2023/03/12 00:26:18;;;;;;;13.60;3.95;;;;;;;14.97;61.63;95409.19;5004906;28;20029;-26
2023/03/12 00:28:44;;;;;;;13.27;4.00;;;;;;;15.16;61.26;95417.09;5004741;28;20383;-27
2023/03/12 00:31:31;;;;;;;8.70;3.75;;;;;;;15.27;60.63;95412.50;5005627;28;20168;-26
2023/03/12 00:33:58;;;;;;;10.55;3.38;;;;;;;15.19;61.05;95418.88;4997625;28;20024;-26
2023/03/12 00:36:26;;;;;;;13.70;3.47;;;;;;;14.87;61.70;95410.56;4998180;28;20055;-26
2023/03/12 00:38:53;;;;;;;10.95;3.67;;;;;;;14.88;61.41;95406.59;4997505;28;20026;-26
2023/03/12 00:41:19;;;;;;;10.38;3.40;;;;;;;15.10;60.74;95414.28;5004320;28;20470;-26
2023/03/12 00:43:45;;;;;;;11.98;3.35;;;;;;;14.92;61.63;95423.53;5001096;28;20034;-26
2023/03/12 00:46:11;;;;;;;14.65;4.00;;;;;;;15.14;60.68;95412.09;5000486;28;20084;-26
2023/03/12 00:48:36;;;;;;;11.82;3.67;;;;;;;15.00;60.95;95410.22;5000725;28;20033;-26
2023/03/12 00:51:02;;;;;;;11.27;3.63;;;;;;;15.20;60.67;95414.91;5002012;28;20033;-26
2023/03/12 00:53:27;;;;;;;11.63;4.07;;;;;;;14.96;61.30;95420.63;4997733;28;20489;-26
2023/03/12 00:55:53;;;;;;;16.05;3.33;;;;;;;14.77;61.86;95422.84;4997461;28;20228;-26
2023/03/12 00:58:18;;;;;;;9.95;3.85;;;;;;;14.79;61.95;95414.19;5003869;28;20375;-26
2023/03/12 01:00:44;;;;;;;12.10;3.70;;;;;;;14.89;61.34;95415.53;5004466;28;20510;-26
2023/03/12 01:03:09;;;;;;;10.02;3.08;;;;;;;14.98;61.54;95410.69;4997094;28;20406;-26
2023/03/12 01:05:36;;;;;;;11.32;3.30;;;;;;;14.78;61.97;95418.16;4997652;28;20030;-26
2023/03/12 01:08:04;;;;;;;9.80;3.05;;;;;;;14.90;61.26;95417.81;5004313;28;20494;-26
2023/03/12 01:10:29;;;;;;;11.52;3.40;;;;;;;14.75;62.11;95425.31;4995746;28;20045;-26
2023/03/12 01:12:55;;;;;;;8.88;3.03;;;;;;;15.01;61.44;95423.38;4998816;28;20470;-27
2023/03/12 01:15:21;;;;;;;10.90;3.33;;;;;;;14.76;62.18;95423.31;5002375;28;20034;-26
2023/03/12 01:17:46;;;;;;;12.38;3.15;;;;;;;14.89;61.49;95418.28;5004118;28;20022;-26
2023/03/12 01:20:12;;;;;;;12.13;3.13;;;;;;;14.79;61.94;95411.47;4996807;28;20025;-26
2023/03/12 01:22:37;;;;;;;10.30;2.60;;;;;;;14.93;61.38;95402.44;4996822;28;20408;-26
2023/03/12 01:25:03;;;;;;;10.20;2.30;;;;;;;14.99;61.29;95405.97;4997525;28;20093;-26
2023/03/12 01:27:29;;;;;;;7.97;2.72;;;;;;;15.06;60.90;95405.56;4996868;28;20026;-26
2023/03/12 01:29:54;;;;;;;7.38;2.40;;;;;;;14.98;61.09;95404.47;5011632;28;20078;-26
2023/03/12 01:32:20;;;;;;;11.00;2.25;;;;;;;14.85;61.30;95401.34;5005099;28;20064;-26
2023/03/12 01:34:45;;;;;;;12.38;2.55;;;;;;;14.99;60.79;95397.78;5001440;28;20026;-27
2023/03/12 01:37:11;;;;;;;8.88;2.80;;;;;;;15.01;60.76;95403.53;4997177;28;20049;-26
2023/03/12 01:39:36;;;;;;;13.60;3.05;;;;;;;14.96;60.74;95401.50;4996635;28;20018;-26
2023/03/12 01:42:02;;;;;;;12.70;3.33;;;;;;;14.88;61.45;95400.41;4996719;28;20023;-26
2023/03/12 01:44:28;;;;;;;9.40;2.70;;;;;;;14.95;61.23;95397.28;4996991;28;20025;-26
2023/03/12 01:46:53;;;;;;;9.40;2.78;;;;;;;14.93;61.14;95403.19;5002984;28;20030;-26
2023/03/12 01:49:30;;;;;;;10.32;2.70;;;;;;;15.09;60.41;95402.63;4996201;28;20022;-26
2023/03/12 01:52:06;;;;;;;15.02;3.50;;;;;;;14.99;60.55;95409.47;4996254;28;20084;-26
2023/03/12 01:54:31;;;;;;;11.68;3.53;;;;;;;15.36;59.56;95411.59;4997580;28;20026;-26
2023/03/12 01:56:57;;;;;;;12.63;3.63;;;;;;;14.92;60.85;95400.94;4996181;28;20390;-26
2023/03/12 01:59:31;;;;;;;7.95;2.75;;;;;;;15.11;60.17;95399.41;4996262;28;20021;-26
2023/03/12 02:02:14;;;;;;;6.43;2.38;;;;;;;14.88;60.88;95397.66;4998624;28;20042;-26
2023/03/12 02:04:43;;;;;;;12.05;3.15;;;;;;;15.01;60.59;95404.28;4997877;28;20398;-26
2023/03/12 02:07:14;;;;;;;10.77;2.72;;;;;;;15.11;60.07;95399.41;5000436;28;20026;-26
2023/03/12 02:09:46;;;;;;;11.20;2.80;;;;;;;14.85;60.86;95391.19;4998708;28;20046;-26
2023/03/12 02:12:12;;;;;;;10.52;2.60;;;;;;;15.02;60.43;95394.09;5000093;28;20108;-26
2023/03/12 02:14:38;;;;;;;7.47;2.80;;;;;;;14.95;60.48;95394.53;4998711;28;20049;-26
2023/03/12 02:17:04;;;;;;;12.45;2.65;;;;;;;14.75;61.48;95389.81;5002793;28;20018;-26
2023/03/12 02:19:39;;;;;;;11.93;2.53;;;;;;;14.90;60.72;95393.25;5002420;28;20018;-26
2023/03/12 02:22:05;;;;;;;8.18;2.60;;;;;;;14.92;60.86;95400.94;5002942;28;20025;-26
2023/03/12 02:24:41;;;;;;;12.63;2.42;;;;;;;14.97;60.82;95400.25;4995930;28;20092;-26
2023/03/12 02:27:07;;;;;;;12.35;3.47;;;;;;;15.00;60.61;95402.03;4996047;28;20025;-26
2023/03/12 02:29:35;;;;;;;7.95;2.00;;;;;;;14.89;61.13;95410.09;4995687;28;20379;-26
2023/03/12 02:32:03;;;;;;;15.48;2.30;;;;;;;15.08;60.57;95403.13;5010176;28;20026;-26
2023/03/12 02:34:28;;;;;;;8.73;2.45;;;;;;;14.90;61.29;95409.63;4993788;28;20390;-26
2023/03/12 02:36:54;;;;;;;12.10;2.58;;;;;;;14.71;61.89;95400.94;4995434;28;20092;-27
2023/03/12 02:39:19;;;;;;;11.77;3.05;;;;;;;14.88;61.21;95406.59;5002499;28;20117;-26
2023/03/12 02:41:49;;;;;;;10.60;2.25;;;;;;;15.11;60.34;95413.06;4995455;28;20080;-26
2023/03/12 02:44:17;;;;;;;6.75;2.50;;;;;;;14.96;60.76;95412.41;4996212;28;20034;-26
2023/03/12 02:46:45;;;;;;;10.50;2.70;;;;;;;14.86;61.12;95417.25;4995473;28;20022;-26
2023/03/12 02:49:12;;;;;;;7.10;1.95;;;;;;;15.03;60.51;95417.44;5008943;28;20018;-27
2023/03/12 02:51:39;;;;;;;10.23;2.60;;;;;;;14.98;60.53;95426.31;5002452;28;20030;-26
2023/03/12 02:54:05;;;;;;;11.07;3.30;;;;;;;15.21;59.64;95425.34;4995222;28;20096;-26
2023/03/12 02:56:31;;;;;;;12.82;2.75;;;;;;;15.11;59.90;95426.72;4996111;28;20426;-26
2023/03/12 02:58:57;;;;;;;7.55;2.05;;;;;;;15.04;60.36;95425.16;4995362;28;20073;-27
2023/03/12 03:01:23;;;;;;;10.25;2.20;;;;;;;15.09;59.82;95437.38;4995165;28;20058;-26
2023/03/12 03:03:48;;;;;;;10.15;2.13;;;;;;;14.97;60.41;95438.47;4997472;28;20478;-26
2023/03/12 03:06:17;;;;;;;12.90;2.33;;;;;;;15.02;60.73;95437.78;5003901;28;20030;-26
2023/03/12 03:08:43;;;;;;;8.77;1.80;;;;;;;15.20;60.08;95442.97;4998849;28;20026;-26
2023/03/12 03:11:09;;;;;;;9.35;1.70;;;;;;;14.98;61.02;95448.16;4999301;28;20026;-26
2023/03/12 03:13:56;;;;;;;8.35;2.35;;;;;;;15.07;60.53;95450.78;5006467;28;20065;-26
2023/03/12 03:16:20;;;;;;;12.88;2.22;;;;;;;14.87;61.23;95456.22;4998719;28;20109;-26
2023/03/12 03:18:46;;;;;;;6.25;1.63;;;;;;;15.02;60.76;95459.63;4999350;28;20029;-26
2023/03/12 03:21:15;;;;;;;10.38;2.22;;;;;;;14.97;60.64;95463.03;5005248;28;20065;-26
2023/03/12 03:23:44;;;;;;;5.32;1.60;;;;;;;15.05;60.63;95472.34;5004814;28;20031;-26
2023/03/12 03:26:09;;;;;;;7.07;1.52;;;;;;;14.98;60.21;95478.19;4999818;28;20030;-26
2023/03/12 03:28:35;;;;;;;9.60;2.40;;;;;;;15.00;60.41;95471.03;4998888;28;20489;-26
2023/03/12 03:31:02;;;;;;;9.32;2.00;;;;;;;14.91;60.65;95481.34;5007190;28;20470;-26
2023/03/12 03:33:32;;;;;;;7.35;1.45;;;;;;;14.82;61.16;95476.78;5005458;28;20026;-26
2023/03/12 03:35:58;;;;;;;7.80;1.90;;;;;;;14.81;61.17;95493.63;4999818;28;20363;-27
2023/03/12 03:38:26;;;;;;;7.78;1.98;;;;;;;15.05;60.44;95496.91;4999233;28;20470;-26
2023/03/12 03:40:52;;;;;;;6.28;1.90;;;;;;;14.93;60.79;95492.53;5005209;28;20112;-26
2023/03/12 03:43:17;;;;;;;8.60;1.73;;;;;;;14.93;60.87;95496.03;4999290;28;20101;-26
2023/03/12 03:45:43;;;;;;;10.77;1.98;;;;;;;15.26;59.53;95490.22;4998660;28;20117;-27
2023/03/12 03:48:10;;;;;;;10.20;2.28;;;;;;;15.01;60.22;95488.16;4998497;28;20029;-27
2023/03/12 03:50:37;;;;;;;6.53;1.80;;;;;;;14.95;60.30;95496.31;5006099;28;20030;-27
2023/03/12 03:53:04;;;;;;;8.50;1.42;;;;;;;15.15;59.46;95492.81;5003458;28;20454;-26
2023/03/12 03:55:29;;;;;;;8.20;1.73;;;;;;;14.90;60.37;95499.69;5000719;28;20018;-26
2023/03/12 03:57:55;;;;;;;5.75;1.70;;;;;;;14.81;60.56;95507.28;5004714;28;20034;-26
2023/03/12 04:00:20;;;;;;;6.78;1.67;;;;;;;14.62;61.22;95510.22;4998268;28;20068;-26
2023/03/12 04:02:46;;;;;;;7.68;1.95;;;;;;;14.77;60.81;95514.91;5001451;28;20069;-26
2023/03/12 04:05:11;;;;;;;8.70;1.48;;;;;;;14.63;61.21;95503.56;4998280;28;20026;-26
2023/03/12 04:07:37;;;;;;;8.40;1.80;;;;;;;14.95;60.22;95509.19;4998899;28;20015;-26
2023/03/12 04:10:04;;;;;;;9.00;1.67;;;;;;;14.76;60.96;95511.41;5004369;28;20027;-26
2023/03/12 04:12:29;;;;;;;7.47;1.27;;;;;;;14.78;60.68;95513.69;4996808;28;20096;-26
2023/03/12 04:14:55;;;;;;;8.40;1.75;;;;;;;14.77;60.77;95512.94;4998741;28;20482;-26
2023/03/12 04:17:21;;;;;;;13.00;2.35;;;;;;;14.60;61.07;95518.13;4996996;28;20018;-26
2023/03/12 04:19:46;;;;;;;10.30;1.70;;;;;;;14.64;61.16;95524.16;4998437;28;20026;-26
2023/03/12 04:22:12;;;;;;;11.70;1.92;;;;;;;14.77;60.74;95528.56;4998222;28;20382;-26
2023/03/12 04:24:37;;;;;;;8.25;1.58;;;;;;;14.90;60.19;95526.25;4997947;28;20062;-26
2023/03/12 04:27:03;;;;;;;6.95;1.60;;;;;;;14.65;60.79;95522.94;5004985;28;20030;-27
2023/03/12 04:29:28;;;;;;;5.32;1.27;;;;;;;14.77;60.92;95531.28;5004164;28;20041;-26
2023/03/12 04:31:54;;;;;;;10.10;1.58;;;;;;;14.90;60.16;95531.72;5004800;28;20026;-26
2023/03/12 04:34:19;;;;;;;7.43;1.40;;;;;;;14.71;60.68;95529.22;4998634;28;20014;-27
2023/03/12 04:36:45;;;;;;;7.63;2.03;;;;;;;14.70;60.84;95533.19;4997744;28;20105;-27
2023/03/12 04:39:11;;;;;;;5.68;1.30;;;;;;;14.85;60.33;95549.50;4998299;28;20022;-26
2023/03/12 04:41:38;;;;;;;8.52;1.38;;;;;;;15.01;59.84;95548.22;5000415;28;20028;-26
2023/03/12 04:44:04;;;;;;;7.57;1.25;;;;;;;14.88;60.02;95558.72;5000849;28;20434;-26
2023/03/12 04:46:30;;;;;;;4.15;1.13;;;;;;;14.68;60.78;95562.94;5004647;28;20029;-27
2023/03/12 04:48:56;;;;;;;6.40;1.17;;;;;;;15.06;59.85;95559.25;5002598;28;20442;-26
2023/03/12 04:51:22;;;;;;;12.02;2.25;;;;;;;14.81;60.37;95567.31;4999782;28;20023;-26
2023/03/12 04:53:48;;;;;;;9.52;1.30;;;;;;;14.79;60.36;95569.78;4997368;28;20101;-26
2023/03/12 04:56:13;;;;;;;5.43;1.00;;;;;;;14.93;59.97;95564.28;5003786;28;20386;-26
2023/03/12 04:58:40;;;;;;;4.80;1.27;;;;;;;14.65;60.49;95569.31;5004361;28;22276;-26
2023/03/12 05:01:06;;;;;;;5.43;1.25;;;;;;;14.71;60.52;95570.16;4997154;28;20374;-27
2023/03/12 05:03:31;;;;;;;7.57;1.52;;;;;;;14.72;60.27;95582.56;4997765;28;20023;-26
2023/03/12 05:05:57;;;;;;;8.45;1.40;;;;;;;14.78;60.44;95579.94;4997482;28;20053;-26
2023/03/12 05:08:23;;;;;;;6.75;1.15;;;;;;;14.79;60.51;95589.63;4997052;28;20022;-26
2023/03/12 05:10:48;;;;;;;8.15;1.50;;;;;;;14.70;60.44;95587.78;4998666;28;20479;-26
2023/03/12 05:13:20;;;;;;;10.63;1.88;;;;;;;14.63;61.06;95588.16;5009958;28;20049;-26
2023/03/12 05:15:47;;;;;;;7.38;1.80;;;;;;;14.55;61.18;95595.22;5004244;28;20478;-27
2023/03/12 05:18:13;;;;;;;9.20;2.38;;;;;;;15.10;59.58;95592.53;4997102;28;20025;-26
2023/03/12 05:20:39;;;;;;;9.65;2.53;;;;;;;14.90;59.94;95602.69;4996677;28;20101;-26
2023/03/12 05:23:04;;;;;;;12.55;2.60;;;;;;;14.78;60.50;95606.47;4997625;28;20037;-26
2023/03/12 05:25:30;;;;;;;16.17;3.42;;;;;;;14.73;60.54;95603.19;4996876;28;20371;-27
2023/03/12 05:27:55;;;;;;;10.77;3.45;;;;;;;14.68;60.69;95605.84;5003747;28;20030;-26
2023/03/12 05:30:21;;;;;;;12.02;2.90;;;;;;;14.73;60.46;95608.63;4995720;28;20020;-26
2023/03/12 05:32:47;;;;;;;11.00;2.55;;;;;;;14.95;60.03;95619.16;4996715;28;20070;-26
2023/03/12 05:35:12;;;;;;;11.60;2.15;;;;;;;14.62;61.25;95611.19;5003609;28;20023;-26
2023/03/12 05:37:38;;;;;;;9.15;2.20;;;;;;;14.55;61.03;95614.31;4996548;28;20489;-26
2023/03/12 05:40:05;;;;;;;13.55;2.40;;;;;;;14.91;60.58;95617.84;4996665;28;20545;-26
2023/03/12 05:42:31;;;;;;;13.60;2.15;;;;;;;14.88;60.47;95621.50;5003956;28;20026;-26
2023/03/12 05:44:58;;;;;;;6.95;1.80;;;;;;;14.80;60.72;95629.34;5002932;28;20113;-26
2023/03/12 05:47:23;;;;;;;9.70;1.98;;;;;;;14.91;60.61;95628.75;5003595;28;20025;-26
2023/03/12 05:49:49;;;;;;;12.27;2.10;;;;;;;14.65;61.23;95629.38;5003398;28;20034;-26
2023/03/12 05:52:14;;;;;;;7.15;1.65;;;;;;;14.69;60.92;95629.19;4996360;28;20031;-26
2023/03/12 05:54:40;;;;;;;6.25;2.08;;;;;;;14.88;60.83;95630.47;4996999;28;20040;-26
2023/03/12 05:57:05;;;;;;;13.63;2.00;;;;;;;14.87;60.79;95642.59;4996022;28;20014;-26
2023/03/12 05:59:33;;;;;;;10.80;1.95;;;;;;;14.60;61.52;95642.91;4996534;28;20348;-26
2023/03/12 06:01:59;;;;;;;8.73;2.47;;;;;;;14.86;60.68;95645.81;5004853;28;20046;-26
2023/03/12 06:04:25;;;;;;;11.32;2.20;;;;;;;14.90;60.26;95660.03;5002790;28;20018;-26
2023/03/12 06:06:50;;;;;;;14.90;2.97;;;;;;;14.78;60.87;95655.59;4996468;28;20030;-26
2023/03/12 06:09:17;;;;;;;8.20;1.25;;;;;;;14.81;60.74;95660.88;4996130;28;20032;-26
2023/03/12 06:11:42;;;;;;;14.93;2.95;;;;;;;14.99;60.42;95663.38;4996724;28;20053;-26
2023/03/12 06:14:07;;;;;;;7.03;1.70;;;;;;;14.87;61.18;95671.88;5003091;28;20030;-26
2023/03/12 06:16:33;;;;;;;14.32;2.35;;;;;;;15.00;60.71;95675.06;5001945;28;20030;-26
2023/03/12 06:19:02;;;;;;;12.05;2.28;;;;;;;14.92;60.91;95679.41;4997873;28;20042;-26
2023/03/12 06:21:33;;;;;;;9.68;1.85;;;;;;;14.85;61.26;95674.31;5001288;28;20033;-26
2023/03/12 06:23:59;;;;;;;9.48;2.53;;;;;;;14.79;61.83;95676.22;4996139;28;20030;-26
2023/03/12 06:26:25;;;;;;;12.10;2.50;;;;;;;14.98;61.28;95688.44;4995953;28;20101;-26
2023/03/12 06:28:51;;;;;;;9.80;2.03;;;;;;;14.91;61.83;95688.81;4994228;28;20026;-26
2023/03/12 06:31:18;;;;;;;13.52;2.20;;;;;;;14.83;61.82;95688.47;4996153;28;20390;-26
2023/03/12 06:33:43;;;;;;;13.95;2.67;;;;;;;14.87;62.00;95688.25;5002734;28;20386;-26
2023/03/12 06:36:09;;;;;;;11.75;2.47;;;;;;;14.99;61.51;95695.41;5002923;28;20018;-26
2023/03/12 06:38:35;;;;;;;9.68;2.25;;;;;;;15.00;61.45;95705.09;4995549;28;20033;-27
2023/03/12 06:41:02;;;;;;;11.23;2.60;;;;;;;14.97;61.71;95697.84;4995078;28;20029;-27
2023/03/12 06:43:29;;;;;;;18.45;2.97;;;;;;;14.83;62.46;95702.13;5009225;28;20389;-27
2023/03/12 06:45:56;;;;;;;12.63;2.85;;;;;;;15.09;61.53;95713.94;5000348;28;20033;-26
2023/03/12 06:48:23;;;;;;;11.38;2.58;;;;;;;15.01;61.68;95715.56;4996461;28;20026;-26
2023/03/12 06:50:49;;;;;;;10.02;1.95;;;;;;;15.12;61.60;95719.69;4995327;28;20058;-26
2023/03/12 06:53:15;;;;;;;16.80;2.78;;;;;;;15.10;61.15;95718.16;5001860;28;20087;-26
2023/03/12 06:55:42;;;;;;;10.32;2.30;;;;;;;15.08;61.78;95730.81;4995748;28;20429;-26
2023/03/12 06:58:07;;;;;;;11.25;2.30;;;;;;;15.09;61.93;95729.56;4995254;28;20105;-27
2023/03/12 07:00:33;;;;;;;12.20;2.70;;;;;;;15.07;61.89;95730.06;4995823;28;20105;-26
2023/03/12 07:02:59;;;;;;;11.35;2.53;;;;;;;15.16;61.73;95733.91;5001553;28;20520;-26
2023/03/12 07:05:24;;;;;;;19.35;3.47;;;;;;;14.81;62.75;95740.03;5001308;28;20108;-26
2023/03/12 07:07:50;;;;;;;14.18;2.45;;;;;;;14.97;62.38;95741.53;4996047;28;20025;-26
2023/03/12 07:10:16;;;;;;;14.40;2.67;;;;;;;15.18;62.03;95748.59;4995043;28;20442;-26
2023/03/12 07:12:41;;;;;;;12.13;3.00;;;;;;;15.17;61.71;95754.53;5002900;28;20108;-26
2023/03/12 07:15:07;;;;;;;12.40;2.15;;;;;;;15.08;62.20;95752.66;4995034;28;20026;-26
2023/03/12 07:17:32;;;;;;;17.02;3.15;;;;;;;15.22;61.80;95765.53;4995393;28;20076;-26
2023/03/12 07:19:58;;;;;;;15.70;3.10;;;;;;;15.14;62.05;95775.34;5002253;28;20022;-26
2023/03/12 07:22:23;;;;;;;13.73;2.97;;;;;;;15.18;62.17;95775.91;5001724;28;20018;-27
2023/03/12 07:24:50;;;;;;;10.40;2.25;;;;;;;15.04;62.74;95773.94;4994147;28;20041;-26
2023/03/12 07:27:16;;;;;;;11.25;2.25;;;;;;;15.27;62.03;95786.72;5002091;28;20018;-26
2023/03/12 07:29:41;;;;;;;8.85;1.95;;;;;;;15.16;62.50;95781.09;4994923;28;20026;-26
2023/03/12 07:32:07;;;;;;;11.55;3.47;;;;;;;15.23;62.06;95797.09;4997324;28;20017;-26
2023/03/12 07:34:32;;;;;;;10.10;2.42;;;;;;;15.20;61.98;95795.31;5004662;28;20022;-26
2023/03/12 07:36:58;;;;;;;13.43;2.92;;;;;;;15.32;61.74;95807.19;4997895;28;20027;-27
2023/03/12 07:39:24;;;;;;;7.65;2.22;;;;;;;15.17;62.62;95815.38;5002364;28;20037;-26
2023/03/12 07:41:50;;;;;;;10.55;2.42;;;;;;;15.25;62.05;95813.75;4994916;28;20018;-26
2023/03/12 07:44:15;;;;;;;10.65;2.40;;;;;;;15.09;63.03;95825.16;4995729;28;20165;-26
2023/03/12 07:46:41;;;;;;;12.13;2.60;;;;;;;15.12;62.62;95829.69;4993362;28;20034;-27
2023/03/12 07:49:08;;;;;;;16.42;2.80;;;;;;;15.24;62.22;95828.66;5001636;28;20022;-27
2023/03/12 07:51:33;;;;;;;10.80;2.70;;;;;;;15.38;61.79;95827.88;5003434;28;20389;-26
2023/03/12 07:53:58;;;;;;;12.80;2.85;;;;;;;15.31;62.11;95833.75;4997702;28;20109;-26
2023/03/12 07:56:24;;;;;;;10.27;2.40;;;;;;;15.33;61.28;95838.75;4999073;28;20434;-26
2023/03/12 07:58:49;;;;;;;13.13;2.65;;;;;;;15.44;61.06;95845.13;4998300;28;20010;-27
2023/03/12 08:01:15;;;;;;;11.18;2.53;;;;;;;15.37;61.28;95840.03;4999815;28;20041;-26
2023/03/12 08:03:40;;;;;;;8.43;2.25;;;;;;;15.14;61.76;95846.34;4998987;28;20030;-26
2023/03/12 08:06:07;;;;;;;15.43;2.60;;;;;;;15.29;60.91;95838.16;4998368;28;20022;-26
2023/03/12 08:08:34;;;;;;;10.30;2.50;;;;;;;15.46;61.35;95848.13;5004735;28;20030;-26
2023/03/12 08:11:03;;;;;;;9.13;2.05;;;;;;;15.50;61.56;95852.66;5011722;28;20081;-26
2023/03/12 08:13:28;;;;;;;8.75;2.22;;;;;;;15.39;61.80;95859.44;5005505;28;20026;-26
2023/03/12 08:15:54;;;;;;;8.73;2.60;;;;;;;15.18;62.65;95859.81;4998787;28;20503;-26
2023/03/12 08:18:20;;;;;;;8.88;2.55;;;;;;;15.45;61.48;95865.03;4997961;28;20030;-26
2023/03/12 08:20:49;;;;;;;12.27;2.50;;;;;;;15.30;61.12;95865.03;4998338;28;20497;-26
2023/03/12 08:23:15;;;;;;;11.60;2.10;;;;;;;15.28;61.37;95869.44;5000256;28;20029;-26
2023/03/12 08:25:40;;;;;;;8.82;2.22;;;;;;;15.39;60.86;95870.38;5001963;28;20101;-26
2023/03/12 08:28:05;;;;;;;13.00;2.90;;;;;;;15.41;61.20;95862.47;5004972;28;20421;-26
2023/03/12 08:30:31;;;;;;;12.02;2.78;;;;;;;15.43;61.73;95875.66;5002181;28;20026;-26
2023/03/12 08:32:57;;;;;;;7.45;2.00;;;;;;;15.54;60.88;95872.38;5000623;28;20478;-26
2023/03/12 08:35:22;;;;;;;18.15;2.63;;;;;;;15.55;61.02;95882.09;5011558;28;20028;-26
2023/03/12 08:37:48;;;;;;;14.00;2.38;;;;;;;15.49;61.72;95883.94;4997844;28;20034;-26
2023/03/12 08:40:14;;;;;;;12.50;2.10;;;;;;;15.54;60.96;95886.78;5004792;28;20107;-26
2023/03/12 08:42:40;;;;;;;13.48;2.20;;;;;;;15.58;60.71;95898.28;5000933;28;20028;-26
2023/03/12 08:45:07;;;;;;;13.63;3.22;;;;;;;15.75;60.77;95890.38;5000659;28;20121;-26
2023/03/12 08:47:32;;;;;;;15.93;2.67;;;;;;;15.69;61.46;95895.00;5011564;28;20034;-26
2023/03/12 08:49:57;;;;;;;15.85;2.50;;;;;;;15.63;61.81;95896.88;4997457;28;20022;-26
2023/03/12 08:52:23;;;;;;;9.95;2.22;;;;;;;15.81;60.54;95893.97;4998124;28;20023;-27
2023/03/12 08:54:49;;;;;;;9.23;2.53;;;;;;;15.82;60.51;95902.91;5004709;28;20444;-26
2023/03/12 08:57:15;;;;;;;10.43;2.55;;;;;;;15.78;61.34;95903.09;5003801;28;20105;-26
2023/03/12 08:59:40;;;;;;;11.25;2.50;;;;;;;15.70;61.67;95907.47;5004810;28;20032;-26
2023/03/12 09:02:06;;;;;;;11.15;2.80;;;;;;;15.77;61.62;95909.78;4996801;28;20390;-26
2023/03/12 09:04:31;;;;;;;13.15;2.88;;;;;;;15.89;60.87;95911.47;4997531;28;20025;-26
2023/03/12 09:06:56;;;;;;;12.98;2.30;;;;;;;15.89;60.62;95911.47;4997357;28;20023;-27
2023/03/12 09:09:22;;;;;;;11.48;2.72;;;;;;;15.90;60.60;95917.69;4997233;28;20026;-26
2023/03/12 09:11:47;;;;;;;12.10;2.92;;;;;;;15.84;61.41;95922.31;4996963;28;20018;-26
2023/03/12 09:14:13;;;;;;;12.25;3.00;;;;;;;15.99;60.57;95932.03;4997170;28;20466;-26
2023/03/12 09:16:38;;;;;;;13.40;3.15;;;;;;;16.01;60.33;95928.81;5003216;28;20030;-26
2023/03/12 09:19:04;;;;;;;12.48;2.83;;;;;;;16.00;60.75;95925.31;4997716;28;20025;-26
2023/03/12 09:21:29;;;;;;;11.15;3.33;;;;;;;15.96;61.81;95932.97;4996964;28;20041;-26
2023/03/12 09:23:55;;;;;;;16.40;3.55;;;;;;;15.96;61.71;95932.97;4997513;28;20474;-26
2023/03/12 09:26:20;;;;;;;12.85;3.78;;;;;;;15.92;61.99;95935.16;5003464;28;20022;-26
2023/03/12 09:28:46;;;;;;;15.38;3.97;;;;;;;16.06;61.44;95942.59;5002616;28;20045;-27
2023/03/12 09:31:12;;;;;;;11.90;3.00;;;;;;;16.02;61.98;95946.72;5006115;28;20030;-27
2023/03/12 09:33:37;;;;;;;13.65;3.50;;;;;;;16.06;62.13;95944.56;5002349;28;20502;-27
2023/03/12 09:36:03;;;;;;;11.63;3.20;;;;;;;16.11;61.57;95960.28;4997168;28;20037;-27
2023/03/12 09:38:30;;;;;;;14.63;3.63;;;;;;;16.00;62.11;95955.41;4995296;28;20014;-27
2023/03/12 09:40:57;;;;;;;9.50;2.53;;;;;;;15.97;62.52;95961.81;4998784;28;20033;-26
2023/03/12 09:43:31;;;;;;;10.73;2.85;;;;;;;15.97;62.29;95959.09;5003492;28;20117;-27
2023/03/12 09:45:59;;;;;;;8.10;2.47;;;;;;;16.01;62.39;95967.84;5002951;28;20364;-26
2023/03/12 09:48:34;;;;;;;11.15;4.82;;;;;;;16.10;61.62;95964.25;4997005;28;20041;-27
2023/03/12 09:51:08;;;;;;;11.27;2.80;;;;;;;16.05;62.05;95971.16;4996416;28;20069;-26
2023/03/12 09:53:45;;;;;;;11.55;3.17;;;;;;;16.14;61.28;95971.06;4998098;28;20029;-26
2023/03/12 09:56:16;;;;;;;11.02;2.60;;;;;;;16.17;61.76;95991.25;4998223;28;20101;-26
2023/03/12 09:58:44;;;;;;;8.10;2.30;;;;;;;16.07;61.98;95978.91;5003459;28;20028;-27
2023/03/12 10:01:42;;;;;;;13.43;2.72;;;;;;;16.02;62.93;95988.50;5000817;28;20026;-27
2023/03/12 10:04:22;;;;;;;9.23;2.22;;;;;;;16.05;62.56;95976.63;4996118;28;20022;-27
2023/03/12 10:06:59;;;;;;;13.02;2.70;;;;;;;16.06;62.44;95977.41;4996901;28;20405;-27
2023/03/12 10:09:33;;;;;;;10.10;2.60;;;;;;;16.14;62.53;95968.31;4995969;28;20026;-26
2023/03/12 10:12:06;;;;;;;8.80;2.67;;;;;;;16.19;61.72;95971.63;5005854;28;20022;-26
2023/03/12 10:15:04;;;;;;;8.50;2.25;;;;;;;16.14;62.25;95968.31;5004924;28;20056;-26
2023/03/12 10:17:30;;;;;;;10.48;2.88;;;;;;;16.22;61.78;95976.13;4997241;28;20034;-27
2023/03/12 10:19:58;;;;;;;7.63;2.60;;;;;;;16.25;61.50;95975.94;4997717;28;20028;-26
2023/03/12 10:22:42;;;;;;;7.68;2.35;;;;;;;16.26;61.74;95976.69;4995682;28;20485;-26
2023/03/12 10:25:07;;;;;;;8.52;2.50;;;;;;;16.28;61.15;95987.94;4996471;28;20022;-27
2023/03/12 10:27:35;;;;;;;14.00;2.80;;;;;;;16.27;60.77;95998.13;4995776;28;20410;-27
2023/03/12 10:30:11;;;;;;;8.30;2.53;;;;;;;16.36;60.53;95998.00;4995560;28;20072;-26
2023/03/12 10:32:45;;;;;;;9.00;3.38;;;;;;;16.36;60.49;95987.06;4995479;28;20030;-27
2023/03/12 10:35:20;;;;;;;5.93;2.25;;;;;;;16.26;60.48;95998.59;5002651;28;20037;-26
2023/03/12 10:37:56;;;;;;;8.68;2.25;;;;;;;16.30;60.58;95980.00;4995940;28;20122;-26
2023/03/12 10:40:34;;;;;;;7.43;2.53;;;;;;;16.28;60.31;95976.97;4996136;28;20026;-26
2023/03/12 10:43:00;;;;;;;7.93;2.38;;;;;;;16.31;60.17;95974.06;4995491;28;20031;-26
2023/03/12 10:45:41;;;;;;;7.47;2.85;;;;;;;16.41;59.94;95971.94;4995927;28;20100;-26
2023/03/12 10:48:10;;;;;;;7.43;2.20;;;;;;;16.36;60.24;95976.09;5001933;28;20485;-26
2023/03/12 10:50:39;;;;;;;8.25;2.90;;;;;;;16.29;60.40;95970.28;5002366;28;20033;-26
2023/03/12 10:53:51;;;;;;;6.50;2.67;;;;;;;16.33;59.54;95976.28;4994226;28;20026;-26
2023/03/12 10:56:19;;;;;;;8.60;2.88;;;;;;;16.44;59.54;95973.75;4994689;28;20038;-26
2023/03/12 10:58:47;;;;;;;8.25;2.63;;;;;;;16.34;59.40;95975.06;4995995;28;20037;-27
2023/03/12 11:01:30;;;;;;;10.38;3.25;;;;;;;16.36;59.69;95975.34;4995041;28;20439;-26
2023/03/12 11:04:17;;;;;;;6.60;2.50;;;;;;;16.34;59.58;95983.28;5001576;28;20026;-26
2023/03/12 11:07:03;;;;;;;7.15;2.88;;;;;;;16.37;59.32;95993.28;5002369;28;20030;-26
2023/03/12 11:09:29;;;;;;;6.93;2.63;;;;;;;16.42;58.98;95996.13;4995171;28;20052;-26
2023/03/12 11:11:55;;;;;;;5.07;2.78;;;;;;;16.40;58.85;95989.59;4997842;28;20152;-26
2023/03/12 11:14:26;;;;;;;7.57;2.70;;;;;;;16.48;58.56;95988.72;5000171;28;20029;-26
2023/03/12 11:16:53;;;;;;;5.60;2.80;;;;;;;16.31;58.94;95982.25;4995502;28;20101;-26
2023/03/12 11:19:39;;;;;;;8.75;2.53;;;;;;;16.52;58.45;95985.81;4998973;28;20053;-26
2023/03/12 11:22:10;;;;;;;5.40;3.20;;;;;;;16.51;58.52;95989.75;4996929;28;20065;-26
2023/03/12 11:24:53;;;;;;;9.40;3.20;;;;;;;16.37;58.84;95993.28;4999371;28;20402;-26
2023/03/12 11:27:36;;;;;;;7.75;3.35;;;;;;;16.43;58.36;95983.19;5005729;28;20486;-26
2023/03/12 11:30:05;;;;;;;8.32;4.20;;;;;;;16.50;57.97;95993.72;5000026;28;20026;-26
2023/03/12 11:32:38;;;;;;;8.82;3.40;;;;;;;16.55;58.13;95987.59;5008755;28;20025;-26